createdAt,value
2018-01-28T00:00:12.128Z,1040.27
2018-01-28T00:01:12.118Z,1040.14
2018-01-28T00:02:12.107Z,1040.2
2018-01-28T00:03:12.094Z,1040.17
2018-01-28T00:04:12.082Z,1040.07
2018-01-28T00:05:12.070Z,1040.07
2018-01-28T00:06:12.059Z,1039.96
2018-01-28T00:07:12.046Z,1040.05
2018-01-28T00:08:12.037Z,1039.93
2018-01-28T00:09:12.022Z,1039.95
2018-01-28T00:10:12.021Z,1039.83
2018-01-28T00:11:11.998Z,1039.76
2018-01-28T00:12:11.987Z,1039.77
2018-01-28T00:13:11.975Z,1039.9
2018-01-28T00:14:11.962Z,1039.8
2018-01-28T00:15:11.951Z,1039.87
2018-01-28T00:16:11.941Z,1039.76
2018-01-28T00:17:11.926Z,1039.77
2018-01-28T00:18:11.917Z,1039.76
2018-01-28T00:19:11.906Z,1039.75
2018-01-28T00:20:11.891Z,1039.73
2018-01-28T00:21:11.879Z,1039.74
2018-01-28T00:22:11.867Z,1039.79
2018-01-28T00:23:11.855Z,1039.82
2018-01-28T00:24:11.844Z,1039.79
2018-01-28T00:25:11.831Z,1039.77
2018-01-28T00:26:11.818Z,1039.71
2018-01-28T00:27:11.808Z,1039.64
2018-01-28T00:28:11.795Z,1039.62
2018-01-28T00:29:11.784Z,1039.54
2018-01-28T00:30:11.772Z,1039.53
2018-01-28T00:31:11.760Z,1039.54
2018-01-28T00:32:11.748Z,1039.57
2018-01-28T00:33:11.736Z,1039.48
2018-01-28T00:34:11.724Z,1039.55
2018-01-28T00:35:11.713Z,1039.42
2018-01-28T00:36:11.699Z,1039.36
2018-01-28T00:37:11.689Z,1039.24
2018-01-28T00:38:11.676Z,1039.31
2018-01-28T00:39:11.665Z,1039.23
2018-01-28T00:40:11.652Z,1039.32
2018-01-28T00:41:11.643Z,1039.2
2018-01-28T00:42:11.633Z,1039.23
2018-01-28T00:43:11.616Z,1039.21
2018-01-28T00:44:11.606Z,1039.16
2018-01-28T00:45:11.593Z,1039.11
2018-01-28T00:46:11.582Z,1039.09
2018-01-28T00:47:11.569Z,1039.07
2018-01-28T00:48:11.558Z,1039.14
2018-01-28T00:49:11.547Z,1039.13
2018-01-28T00:50:11.536Z,1039.08
2018-01-28T00:51:11.524Z,1039.05
2018-01-28T00:52:11.511Z,1038.91
2018-01-28T00:53:11.505Z,1038.94
2018-01-28T00:54:11.487Z,1038.91
2018-01-28T00:55:11.476Z,1038.87
2018-01-28T00:56:11.465Z,1038.87
2018-01-28T00:57:11.454Z,1038.78
2018-01-28T00:58:11.440Z,1038.86
2018-01-28T00:59:11.430Z,1038.69
2018-01-28T01:00:11.417Z,1038.77
2018-01-28T01:01:11.411Z,1038.66
2018-01-28T01:02:11.393Z,1038.72
2018-01-28T01:03:11.383Z,1038.72
2018-01-28T01:04:11.372Z,1038.76
2018-01-28T01:05:11.359Z,1038.85
2018-01-28T01:06:11.347Z,1038.88
2018-01-28T01:07:11.335Z,1038.7
2018-01-28T01:08:11.323Z,1038.77
2018-01-28T01:09:11.315Z,1038.7
2018-01-28T01:10:11.300Z,1038.74
2018-01-28T01:11:11.289Z,1038.6
2018-01-28T01:12:11.277Z,1038.58
2018-01-28T01:13:11.265Z,1038.61
2018-01-28T01:14:11.254Z,1038.6
2018-01-28T01:15:11.242Z,1038.45
2018-01-28T01:16:11.233Z,1038.44
2018-01-28T01:17:11.218Z,1038.36
2018-01-28T01:18:11.209Z,1038.37
2018-01-28T01:19:11.198Z,1038.44
2018-01-28T01:20:11.184Z,1038.29
2018-01-28T01:21:11.171Z,1038.35
2018-01-28T01:22:11.160Z,1038.25
2018-01-28T01:23:11.150Z,1038.28
2018-01-28T01:24:11.137Z,1038.2
2018-01-28T01:25:11.125Z,1038.16
2018-01-28T01:26:11.118Z,1038.19
2018-01-28T01:27:11.101Z,1038.03
2018-01-28T01:28:11.091Z,1038.23
2018-01-28T01:29:11.080Z,1037.88
2018-01-28T01:30:11.067Z,1037.78
2018-01-28T01:31:11.056Z,1037.89
2018-01-28T01:32:11.044Z,1037.77
2018-01-28T01:33:11.032Z,1037.77
2018-01-28T01:34:11.022Z,1037.68
2018-01-28T01:35:11.009Z,1037.62
2018-01-28T01:36:10.998Z,1037.55
2018-01-28T01:37:10.986Z,1037.55
2018-01-28T01:38:10.973Z,1037.53
2018-01-28T01:39:10.962Z,1037.39
2018-01-28T01:40:10.952Z,1037.4
2018-01-28T01:41:10.940Z,1037.34
2018-01-28T01:42:10.927Z,1037.31
2018-01-28T01:43:10.916Z,1037.37
2018-01-28T01:44:10.904Z,1037.36
2018-01-28T01:45:10.893Z,1037.16
2018-01-28T01:46:10.884Z,1037.21
2018-01-28T01:47:10.873Z,1037.29
2018-01-28T01:48:10.862Z,1037.22
2018-01-28T01:49:10.847Z,1037.2
2018-01-28T01:50:10.838Z,1037.22
2018-01-28T01:51:10.825Z,1037.18
2018-01-28T01:52:10.815Z,1037.19
2018-01-28T01:53:10.801Z,1037.17
2018-01-28T01:54:10.790Z,1037.13
2018-01-28T01:55:10.778Z,1037.04
2018-01-28T01:56:10.767Z,1036.95
2018-01-28T01:57:10.754Z,1036.89
2018-01-28T01:58:10.743Z,1036.84
2018-01-28T01:59:10.735Z,1036.89
2018-01-28T02:00:10.719Z,1036.96
2018-01-28T02:01:10.707Z,1037.03
2018-01-28T02:02:10.697Z,1037
2018-01-28T02:03:10.685Z,1037.01
2018-01-28T02:04:10.673Z,1037.02
2018-01-28T02:05:10.662Z,1037.02
2018-01-28T02:06:10.649Z,1036.91
2018-01-28T02:07:10.638Z,1036.93
2018-01-28T02:08:10.627Z,1036.93
2018-01-28T02:09:10.616Z,1036.82
2018-01-28T02:10:10.605Z,1036.83
2018-01-28T02:11:10.593Z,1036.84
2018-01-28T02:12:10.581Z,1036.84
2018-01-28T02:13:10.570Z,1036.76
2018-01-28T02:14:10.557Z,1036.75
2018-01-28T02:15:10.546Z,1036.7
2018-01-28T02:16:10.535Z,1036.56
2018-01-28T02:17:10.524Z,1036.53
2018-01-28T02:18:10.516Z,1036.42
2018-01-28T02:19:10.500Z,1036.54
2018-01-28T02:20:10.488Z,1036.66
2018-01-28T02:21:10.478Z,1036.68
2018-01-28T02:22:10.464Z,1036.77
2018-01-28T02:23:10.455Z,1036.75
2018-01-28T02:24:10.442Z,1036.71
2018-01-28T02:25:10.432Z,1036.68
2018-01-28T02:26:10.419Z,1036.66
2018-01-28T02:27:10.409Z,1036.74
2018-01-28T02:28:10.403Z,1036.66
2018-01-28T02:29:10.385Z,1036.64
2018-01-28T02:30:10.374Z,1036.56
2018-01-28T02:31:10.363Z,1036.45
2018-01-28T02:32:10.352Z,1036.47
2018-01-28T02:33:10.342Z,1036.48
2018-01-28T02:34:10.328Z,1036.48
2018-01-28T02:35:10.317Z,1036.58
2018-01-28T02:36:10.315Z,1036.57
2018-01-28T02:37:10.295Z,1036.55
2018-01-28T02:38:10.282Z,1036.68
2018-01-28T02:39:10.272Z,1036.65
2018-01-28T02:40:10.263Z,1036.58
2018-01-28T02:41:10.248Z,1036.62
2018-01-28T02:42:10.237Z,1036.58
2018-01-28T02:43:10.227Z,1036.52
2018-01-28T02:44:10.215Z,1036.59
2018-01-28T02:45:10.203Z,1036.58
2018-01-28T02:46:10.192Z,1036.64
2018-01-28T02:47:10.181Z,1036.64
2018-01-28T02:48:10.168Z,1036.65
2018-01-28T02:49:10.157Z,1036.67
2018-01-28T02:50:10.147Z,1036.69
2018-01-28T02:51:10.134Z,1036.56
2018-01-28T02:52:10.123Z,1036.58
2018-01-28T02:53:10.111Z,1036.61
2018-01-28T02:54:10.100Z,1036.55
2018-01-28T02:55:10.090Z,1036.48
2018-01-28T02:56:10.079Z,1036.47
2018-01-28T02:57:10.067Z,1036.44
2018-01-28T02:58:10.055Z,1036.29
2018-01-28T02:59:10.044Z,1036.25
2018-01-28T03:00:10.033Z,1036.22
2018-01-28T03:01:10.021Z,1036.14
2018-01-28T03:02:10.009Z,1036.21
2018-01-28T03:03:09.999Z,1036.2
2018-01-28T03:04:09.987Z,1036.18
2018-01-28T03:05:09.976Z,1036.22
2018-01-28T03:06:09.964Z,1036.07
2018-01-28T03:07:09.953Z,1036.24
2018-01-28T03:08:09.942Z,1036.12
2018-01-28T03:09:09.931Z,1036.11
2018-01-28T03:10:09.919Z,1036.09
2018-01-28T03:11:09.908Z,1036.11
2018-01-28T03:12:09.897Z,1036.04
2018-01-28T03:13:09.885Z,1036.12
2018-01-28T03:14:09.873Z,1036.23
2018-01-28T03:15:09.862Z,1036.18
2018-01-28T03:16:09.851Z,1036.15
2018-01-28T03:17:09.840Z,1036.14
2018-01-28T03:18:09.866Z,1036.11
2018-01-28T03:19:09.818Z,1036.21
2018-01-28T03:20:09.806Z,1036.22
2018-01-28T03:21:09.795Z,1036.15
2018-01-28T03:22:09.784Z,1036.21
2018-01-28T03:23:09.772Z,1036.16
2018-01-28T03:24:09.762Z,1036.18
2018-01-28T03:25:09.751Z,1036.23
2018-01-28T03:26:09.738Z,1036.21
2018-01-28T03:27:09.728Z,1036.28
2018-01-28T03:28:09.714Z,1036.23
2018-01-28T03:29:09.705Z,1036.22
2018-01-28T03:30:09.696Z,1036.21
2018-01-28T03:31:09.681Z,1036.22
2018-01-28T03:32:09.669Z,1036.24
2018-01-28T03:33:09.662Z,1036.16
2018-01-28T03:34:09.655Z,1036.17
2018-01-28T03:35:09.635Z,1036.21
2018-01-28T03:36:09.625Z,1036.12
2018-01-28T03:37:09.614Z,1036.02
2018-01-28T03:38:09.602Z,1036
2018-01-28T03:39:09.590Z,1036.03
2018-01-28T03:40:09.580Z,1036.01
2018-01-28T03:41:09.569Z,1036
2018-01-28T03:42:09.556Z,1036
2018-01-28T03:43:09.546Z,1036.01
2018-01-28T03:44:09.534Z,1036.02
2018-01-28T03:45:09.522Z,1035.95
2018-01-28T03:46:09.512Z,1036.07
2018-01-28T03:47:09.499Z,1036.04
2018-01-28T03:48:09.499Z,1036.04
2018-01-28T03:49:09.478Z,1036.09
2018-01-28T03:50:09.465Z,1036.08
2018-01-28T03:51:09.455Z,1036.07
2018-01-28T03:52:09.443Z,1036.09
2018-01-28T03:53:09.431Z,1036.11
2018-01-28T03:54:09.420Z,1036.15
2018-01-28T03:55:09.410Z,1036.06
2018-01-28T03:56:09.399Z,1036.1
2018-01-28T03:57:09.386Z,1036.18
2018-01-28T03:58:09.375Z,1036.18
2018-01-28T03:59:09.365Z,1036.26
2018-01-28T04:00:09.352Z,1036.24
2018-01-28T04:01:09.341Z,1036.25
2018-01-28T04:02:09.330Z,1036.22
2018-01-28T04:03:09.319Z,1036.2
2018-01-28T04:04:09.308Z,1036.23
2018-01-28T04:05:09.295Z,1036.18
2018-01-28T04:06:09.285Z,1036.1
2018-01-28T04:07:09.273Z,1036.14
2018-01-28T04:08:09.261Z,1036.02
2018-01-28T04:09:09.252Z,1035.98
2018-01-28T04:10:09.239Z,1036.03
2018-01-28T04:11:09.230Z,1035.99
2018-01-28T04:12:09.217Z,1036
2018-01-28T04:13:09.206Z,1036.03
2018-01-28T04:14:09.198Z,1035.98
2018-01-28T04:15:09.182Z,1035.95
2018-01-28T04:16:09.172Z,1035.96
2018-01-28T04:17:09.160Z,1035.82
2018-01-28T04:18:09.150Z,1035.89
2018-01-28T04:19:09.137Z,1035.94
2018-01-28T04:20:09.127Z,1035.95
2018-01-28T04:21:09.116Z,1035.95
2018-01-28T04:22:09.105Z,1035.93
2018-01-28T04:23:09.092Z,1036.05
2018-01-28T04:24:09.082Z,1036.06
2018-01-28T04:25:09.071Z,1036.08
2018-01-28T04:26:09.058Z,1036
2018-01-28T04:27:09.047Z,1036.07
2018-01-28T04:28:09.037Z,1036.06
2018-01-28T04:29:09.026Z,1036.01
2018-01-28T04:30:09.015Z,1035.95
2018-01-28T04:31:09.004Z,1035.97
2018-01-28T04:32:08.995Z,1035.97
2018-01-28T04:33:08.980Z,1035.97
2018-01-28T04:34:08.968Z,1035.87
2018-01-28T04:35:08.957Z,1035.97
2018-01-28T04:36:08.947Z,1035.95
2018-01-28T04:37:08.935Z,1035.9
2018-01-28T04:38:08.923Z,1035.99
2018-01-28T04:39:08.913Z,1035.98
2018-01-28T04:40:08.902Z,1035.91
2018-01-28T04:41:08.890Z,1036.04
2018-01-28T04:42:08.881Z,1035.97
2018-01-28T04:43:08.870Z,1036
2018-01-28T04:44:08.857Z,1036.04
2018-01-28T04:45:08.844Z,1036.1
2018-01-28T04:46:08.833Z,1036.16
2018-01-28T04:47:08.823Z,1036.01
2018-01-28T04:48:08.810Z,1036.11
2018-01-28T04:49:08.799Z,1036.02
2018-01-28T04:50:08.789Z,1036.2
2018-01-28T04:51:08.778Z,1036.23
2018-01-28T04:52:08.764Z,1036.28
2018-01-28T04:53:08.755Z,1036.25
2018-01-28T04:54:08.744Z,1036.29
2018-01-28T04:55:08.732Z,1036.27
2018-01-28T04:56:08.722Z,1036.35
2018-01-28T04:57:08.710Z,1036.54
2018-01-28T04:58:08.700Z,1036.54
2018-01-28T04:59:08.694Z,1036.52
2018-01-28T05:00:08.676Z,1036.48
2018-01-28T05:01:08.665Z,1036.54
2018-01-28T05:02:08.655Z,1036.4
2018-01-28T05:03:08.646Z,1036.51
2018-01-28T05:04:08.631Z,1036.58
2018-01-28T05:05:08.621Z,1036.53
2018-01-28T05:06:08.607Z,1036.51
2018-01-28T05:07:08.597Z,1036.52
2018-01-28T05:08:08.585Z,1036.46
2018-01-28T05:09:08.577Z,1036.52
2018-01-28T05:10:08.563Z,1036.64
2018-01-28T05:11:08.552Z,1036.66
2018-01-28T05:12:08.540Z,1036.6
2018-01-28T05:13:08.531Z,1036.63
2018-01-28T05:14:08.534Z,1036.63
2018-01-28T05:15:08.507Z,1036.71
2018-01-28T05:16:08.496Z,1036.75
2018-01-28T05:17:08.483Z,1036.69
2018-01-28T05:18:08.475Z,1036.78
2018-01-28T05:19:08.461Z,1036.79
2018-01-28T05:20:08.453Z,1036.66
2018-01-28T05:21:08.437Z,1036.64
2018-01-28T05:22:08.427Z,1036.51
2018-01-28T05:23:08.415Z,1036.52
2018-01-28T05:24:08.405Z,1036.45
2018-01-28T05:25:08.392Z,1036.62
2018-01-28T05:26:08.381Z,1036.62
2018-01-28T05:27:08.370Z,1036.48
2018-01-28T05:28:08.358Z,1036.62
2018-01-28T05:29:08.348Z,1036.53
2018-01-28T05:30:08.336Z,1036.41
2018-01-28T05:31:08.324Z,1036.35
2018-01-28T05:32:08.320Z,1036.41
2018-01-28T05:33:08.303Z,1036.55
2018-01-28T05:34:08.290Z,1036.58
2018-01-28T05:35:08.279Z,1036.57
2018-01-28T05:36:08.267Z,1036.51
2018-01-28T05:37:08.256Z,1036.49
2018-01-28T05:38:08.246Z,1036.39
2018-01-28T05:39:08.233Z,1036.42
2018-01-28T05:40:08.221Z,1036.36
2018-01-28T05:41:08.211Z,1036.43
2018-01-28T05:42:08.199Z,1036.51
2018-01-28T05:43:08.188Z,1036.59
2018-01-28T05:44:08.178Z,1036.61
2018-01-28T05:45:08.166Z,1036.61
2018-01-28T05:46:08.155Z,1036.58
2018-01-28T05:47:08.143Z,1036.51
2018-01-28T05:48:08.132Z,1036.56
2018-01-28T05:49:08.120Z,1036.62
2018-01-28T05:50:08.108Z,1036.63
2018-01-28T05:51:08.097Z,1036.67
2018-01-28T05:52:08.086Z,1036.73
2018-01-28T05:53:08.075Z,1036.68
2018-01-28T05:54:08.069Z,1036.63
2018-01-28T05:55:08.052Z,1036.65
2018-01-28T05:56:08.042Z,1036.65
2018-01-28T05:57:08.030Z,1036.65
2018-01-28T05:58:08.019Z,1036.66
2018-01-28T05:59:08.006Z,1036.74
2018-01-28T06:00:07.996Z,1036.75
2018-01-28T06:01:07.984Z,1036.73
2018-01-28T06:02:07.975Z,1036.72
2018-01-28T06:03:07.962Z,1036.73
2018-01-28T06:04:07.950Z,1036.78
2018-01-28T06:05:07.940Z,1036.82
2018-01-28T06:06:07.929Z,1036.83
2018-01-28T06:07:07.917Z,1036.83
2018-01-28T06:08:07.906Z,1036.9
2018-01-28T06:09:07.895Z,1036.94
2018-01-28T06:10:07.883Z,1036.9
2018-01-28T06:11:07.872Z,1036.92
2018-01-28T06:12:07.860Z,1036.99
2018-01-28T06:13:07.852Z,1037.02
2018-01-28T06:14:07.838Z,1037.14
2018-01-28T06:15:07.827Z,1037.22
2018-01-28T06:16:07.815Z,1037.27
2018-01-28T06:17:07.805Z,1037.26
2018-01-28T06:18:07.793Z,1037.29
2018-01-28T06:19:07.787Z,1037.29
2018-01-28T06:20:07.772Z,1037.29
2018-01-28T06:21:07.759Z,1037.36
2018-01-28T06:22:07.749Z,1037.42
2018-01-28T06:23:07.759Z,1037.48
2018-01-28T06:24:07.727Z,1037.55
2018-01-28T06:25:07.716Z,1037.6
2018-01-28T06:26:07.704Z,1037.69
2018-01-28T06:27:07.691Z,1037.64
2018-01-28T06:28:07.680Z,1037.74
2018-01-28T06:29:07.671Z,1037.82
2018-01-28T06:30:07.660Z,1037.82
2018-01-28T06:31:07.649Z,1037.84
2018-01-28T06:32:07.637Z,1037.81
2018-01-28T06:33:07.626Z,1037.83
2018-01-28T06:34:07.615Z,1037.86
2018-01-28T06:35:07.604Z,1037.79
2018-01-28T06:36:07.595Z,1037.86
2018-01-28T06:37:07.582Z,1037.84
2018-01-28T06:38:07.570Z,1037.87
2018-01-28T06:39:07.558Z,1037.77
2018-01-28T06:40:07.547Z,1037.78
2018-01-28T06:41:07.535Z,1037.85
2018-01-28T06:42:07.526Z,1037.88
2018-01-28T06:43:07.514Z,1037.85
2018-01-28T06:44:07.503Z,1037.89
2018-01-28T06:45:07.491Z,1037.88
2018-01-28T06:46:07.480Z,1037.99
2018-01-28T06:47:07.469Z,1038.04
2018-01-28T06:48:07.457Z,1038.04
2018-01-28T06:49:07.446Z,1038.07
2018-01-28T06:50:07.433Z,1038.05
2018-01-28T06:51:07.422Z,1038.13
2018-01-28T06:52:07.410Z,1038.11
2018-01-28T06:53:07.400Z,1038.17
2018-01-28T06:54:07.388Z,1038.33
2018-01-28T06:55:07.379Z,1038.36
2018-01-28T06:56:07.364Z,1038.3
2018-01-28T06:57:07.354Z,1038.27
2018-01-28T06:58:07.342Z,1038.28
2018-01-28T06:59:07.332Z,1038.26
2018-01-28T07:00:07.318Z,1038.28
2018-01-28T07:01:07.309Z,1038.24
2018-01-28T07:02:07.297Z,1038.23
2018-01-28T07:03:07.286Z,1038.2
2018-01-28T07:04:07.273Z,1038.24
2018-01-28T07:05:07.262Z,1038.28
2018-01-28T07:06:07.250Z,1038.26
2018-01-28T07:07:07.238Z,1038.26
2018-01-28T07:08:07.226Z,1038.26
2018-01-28T07:09:07.216Z,1038.26
2018-01-28T07:10:07.248Z,1038.25
2018-01-28T07:11:07.193Z,1038.27
2018-01-28T07:12:07.181Z,1038.29
2018-01-28T07:13:07.170Z,1038.25
2018-01-28T07:14:07.157Z,1038.23
2018-01-28T07:15:07.146Z,1038.2
2018-01-28T07:16:07.135Z,1038.18
2018-01-28T07:17:07.124Z,1038.17
2018-01-28T07:18:07.111Z,1038.21
2018-01-28T07:19:07.100Z,1038.25
2018-01-28T07:20:07.095Z,1038.28
2018-01-28T07:21:07.077Z,1038.31
2018-01-28T07:22:07.066Z,1038.33
2018-01-28T07:23:07.054Z,1038.37
2018-01-28T07:24:07.046Z,1038.43
2018-01-28T07:25:07.030Z,1038.39
2018-01-28T07:26:07.019Z,1038.36
2018-01-28T07:27:07.011Z,1038.34
2018-01-28T07:28:06.997Z,1038.4
2018-01-28T07:29:06.984Z,1038.34
2018-01-28T07:30:06.975Z,1038.38
2018-01-28T07:31:06.963Z,1038.4
2018-01-28T07:32:06.950Z,1038.39
2018-01-28T07:33:06.946Z,1038.41
2018-01-28T07:34:06.929Z,1038.39
2018-01-28T07:35:06.922Z,1038.33
2018-01-28T07:36:06.904Z,1038.34
2018-01-28T07:37:06.892Z,1038.29
2018-01-28T07:38:06.881Z,1038.28
2018-01-28T07:39:06.870Z,1038.19
2018-01-28T07:40:06.857Z,1038.29
2018-01-28T07:41:06.846Z,1038.3
2018-01-28T07:42:06.834Z,1038.26
2018-01-28T07:43:06.869Z,1038.26
2018-01-28T07:44:06.812Z,1038.23
2018-01-28T07:45:06.799Z,1038.28
2018-01-28T07:46:06.788Z,1038.25
2018-01-28T07:47:06.777Z,1038.25
2018-01-28T07:48:06.765Z,1038.42
2018-01-28T07:49:06.755Z,1038.36
2018-01-28T07:50:06.742Z,1038.41
2018-01-28T07:51:06.730Z,1038.43
2018-01-28T07:52:06.719Z,1038.34
2018-01-28T07:53:06.708Z,1038.4
2018-01-28T07:54:06.696Z,1038.34
2018-01-28T07:55:06.685Z,1038.39
2018-01-28T07:56:06.673Z,1038.34
2018-01-28T07:57:06.662Z,1038.31
2018-01-28T07:58:06.650Z,1038.21
2018-01-28T07:59:06.639Z,1038.14
2018-01-28T08:00:06.631Z,1038.17
2018-01-28T08:01:06.617Z,1038.19
2018-01-28T08:02:06.605Z,1038.1
2018-01-28T08:03:06.594Z,1038.09
2018-01-28T08:04:06.583Z,1038.17
2018-01-28T08:05:06.572Z,1038.21
2018-01-28T08:06:06.560Z,1038.2
2018-01-28T08:07:06.550Z,1038.2
2018-01-28T08:08:06.539Z,1038.18
2018-01-28T08:09:06.526Z,1038.21
2018-01-28T08:10:06.515Z,1038.2
2018-01-28T08:11:06.503Z,1038.21
2018-01-28T08:12:06.495Z,1038.32
2018-01-28T08:13:06.481Z,1038.3
2018-01-28T08:14:06.469Z,1038.34
2018-01-28T08:15:06.461Z,1038.4
2018-01-28T08:16:06.446Z,1038.35
2018-01-28T08:17:06.436Z,1038.38
2018-01-28T08:18:06.425Z,1038.32
2018-01-28T08:19:06.414Z,1038.34
2018-01-28T08:20:06.401Z,1038.34
2018-01-28T08:21:06.391Z,1038.24
2018-01-28T08:22:06.380Z,1038.32
2018-01-28T08:23:06.370Z,1038.32
2018-01-28T08:24:06.356Z,1038.31
2018-01-28T08:25:06.345Z,1038.19
2018-01-28T08:26:06.334Z,1038.2
2018-01-28T08:27:06.323Z,1038.24
2018-01-28T08:28:06.323Z,1038.22
2018-01-28T08:29:06.300Z,1038.22
2018-01-28T08:30:06.292Z,1038.21
2018-01-28T08:31:06.278Z,1038.2
2018-01-28T08:32:06.267Z,1038.14
2018-01-28T08:33:06.257Z,1038.19
2018-01-28T08:34:06.245Z,1038.12
2018-01-28T08:35:06.234Z,1038.09
2018-01-28T08:36:06.223Z,1038.06
2018-01-28T08:37:06.211Z,1038.11
2018-01-28T08:38:06.200Z,1038.21
2018-01-28T08:39:06.190Z,1038.24
2018-01-28T08:40:06.178Z,1038.23
2018-01-28T08:41:06.168Z,1038.17
2018-01-28T08:42:06.157Z,1038.2
2018-01-28T08:43:06.149Z,1038.24
2018-01-28T08:44:06.139Z,1038.26
2018-01-28T08:45:06.124Z,1038.29
2018-01-28T08:46:06.112Z,1038.33
2018-01-28T08:47:06.101Z,1038.31
2018-01-28T08:48:06.091Z,1038.35
2018-01-28T08:49:06.079Z,1038.4
2018-01-28T08:50:06.068Z,1038.37
2018-01-28T08:51:06.059Z,1038.29
2018-01-28T08:52:06.048Z,1038.24
2018-01-28T08:53:06.037Z,1038.16
2018-01-28T08:54:06.025Z,1038.14
2018-01-28T08:55:06.014Z,1038.14
2018-01-28T08:56:06.004Z,1038.11
2018-01-28T08:57:05.992Z,1038.06
2018-01-28T08:58:05.981Z,1038.05
2018-01-28T08:59:05.970Z,1038.06
2018-01-28T09:00:05.961Z,1038.06
2018-01-28T09:01:05.948Z,1038.05
2018-01-28T09:02:05.938Z,1038.08
2018-01-28T09:03:05.927Z,1038.1
2018-01-28T09:04:05.914Z,1038.12
2018-01-28T09:05:05.904Z,1038.04
2018-01-28T09:06:05.893Z,1038.04
2018-01-28T09:07:05.882Z,1038.07
2018-01-28T09:08:05.872Z,1038
2018-01-28T09:09:05.861Z,1037.98
2018-01-28T09:10:05.851Z,1037.95
2018-01-28T09:11:05.840Z,1037.89
2018-01-28T09:12:05.828Z,1037.89
2018-01-28T09:13:05.818Z,1037.89
2018-01-28T09:14:05.808Z,1037.76
2018-01-28T09:15:05.797Z,1037.74
2018-01-28T09:16:05.785Z,1037.62
2018-01-28T09:17:05.775Z,1037.62
2018-01-28T09:18:05.764Z,1037.62
2018-01-28T09:19:05.753Z,1037.6
2018-01-28T09:20:05.745Z,1037.59
2018-01-28T09:21:05.733Z,1037.68
2018-01-28T09:22:05.722Z,1037.59
2018-01-28T09:23:05.712Z,1037.49
2018-01-28T09:24:05.701Z,1037.43
2018-01-28T09:25:05.692Z,1037.34
2018-01-28T09:26:05.682Z,1037.21
2018-01-28T09:27:05.671Z,1037.19
2018-01-28T09:28:05.661Z,1037.19
2018-01-28T09:29:05.651Z,1037.16
2018-01-28T09:30:05.639Z,1037.35
2018-01-28T09:31:05.630Z,1037.41
2018-01-28T09:32:05.626Z,1037.44
2018-01-28T09:33:05.614Z,1037.4
2018-01-28T09:34:05.600Z,1037.41
2018-01-28T09:35:05.593Z,1037.25
2018-01-28T09:36:05.580Z,1037.06
2018-01-28T09:37:05.569Z,1037
2018-01-28T09:38:05.561Z,1037.11
2018-01-28T09:39:05.551Z,1037.05
2018-01-28T09:40:05.541Z,1037.01
2018-01-28T09:41:05.532Z,1037.05
2018-01-28T09:42:05.522Z,1037.1
2018-01-28T09:43:05.514Z,1037
2018-01-28T09:44:05.502Z,1036.88
2018-01-28T09:45:05.494Z,1036.72
2018-01-28T09:46:05.485Z,1036.57
2018-01-28T09:47:05.475Z,1036.67
2018-01-28T09:48:05.468Z,1036.6
2018-01-28T09:49:05.470Z,1036.51
2018-01-28T09:50:05.448Z,1036.47
2018-01-28T09:51:05.439Z,1036.45
2018-01-28T09:52:05.430Z,1036.46
2018-01-28T09:53:05.422Z,1036.58
2018-01-28T09:54:05.412Z,1036.58
2018-01-28T09:55:05.402Z,1036.67
2018-01-28T09:56:05.393Z,1036.56
2018-01-28T09:57:05.385Z,1036.67
2018-01-28T09:58:05.377Z,1036.59
2018-01-28T09:59:05.367Z,1036.63
2018-01-28T10:00:05.358Z,1036.64
2018-01-28T10:01:05.350Z,1036.57
2018-01-28T10:02:05.340Z,1036.46
2018-01-28T10:03:05.331Z,1036.31
2018-01-28T10:04:05.322Z,1036.23
2018-01-28T10:05:05.316Z,1036.24
2018-01-28T10:06:05.306Z,1036.33
2018-01-28T10:07:05.304Z,1036.31
2018-01-28T10:08:05.299Z,1036.33
2018-01-28T10:09:05.282Z,1036.35
2018-01-28T10:10:05.273Z,1036.28
2018-01-28T10:11:05.265Z,1036.37
2018-01-28T10:12:05.257Z,1036.35
2018-01-28T10:13:05.248Z,1036.32
2018-01-28T10:14:05.239Z,1036.34
2018-01-28T10:15:05.233Z,1036.24
2018-01-28T10:16:05.224Z,1036.17
2018-01-28T10:17:05.215Z,1036.2
2018-01-28T10:18:05.208Z,1036.2
2018-01-28T10:19:05.199Z,1036.26
2018-01-28T10:20:05.191Z,1036.3
2018-01-28T10:21:05.180Z,1036.45
2018-01-28T10:22:05.179Z,1036.5
2018-01-28T10:23:05.174Z,1036.6
2018-01-28T10:24:05.156Z,1036.61
2018-01-28T10:25:05.147Z,1036.67
2018-01-28T10:26:05.139Z,1036.75
2018-01-28T10:27:05.132Z,1036.8
2018-01-28T10:28:05.122Z,1036.87
2018-01-28T10:29:05.129Z,1036.88
2018-01-28T10:30:05.105Z,1036.95
2018-01-28T10:31:05.099Z,1036.93
2018-01-28T10:32:05.088Z,1036.98
2018-01-28T10:33:05.079Z,1036.9
2018-01-28T10:34:05.071Z,1036.92
2018-01-28T10:35:05.063Z,1036.78
2018-01-28T10:36:05.053Z,1036.74
2018-01-28T10:37:05.050Z,1036.69
2018-01-28T10:38:05.038Z,1036.74
2018-01-28T10:39:05.026Z,1036.62
2018-01-28T10:40:05.018Z,1036.59
2018-01-28T10:41:05.012Z,1036.56
2018-01-28T10:42:05.001Z,1036.44
2018-01-28T10:43:04.992Z,1036.41
2018-01-28T10:44:04.984Z,1036.41
2018-01-28T10:45:04.976Z,1036.41
2018-01-28T10:46:04.969Z,1036.35
2018-01-28T10:47:04.957Z,1036.43
2018-01-28T10:48:04.949Z,1036.45
2018-01-28T10:49:04.941Z,1036.51
2018-01-28T10:50:04.934Z,1036.52
2018-01-28T10:51:04.924Z,1036.55
2018-01-28T10:52:04.915Z,1036.48
2018-01-28T10:53:04.906Z,1036.49
2018-01-28T10:54:04.898Z,1036.51
2018-01-28T10:55:04.891Z,1036.6
2018-01-28T10:56:04.882Z,1036.62
2018-01-28T10:57:04.873Z,1036.68
2018-01-28T10:58:04.865Z,1036.57
2018-01-28T10:59:04.858Z,1036.68
2018-01-28T11:00:04.849Z,1036.65
2018-01-28T11:01:04.837Z,1036.56
2018-01-28T11:02:04.828Z,1036.6
2018-01-28T11:03:04.821Z,1036.63
2018-01-28T11:04:04.813Z,1036.59
2018-01-28T11:05:04.803Z,1036.66
2018-01-28T11:06:04.796Z,1036.64
2018-01-28T11:07:04.789Z,1036.6
2018-01-28T11:08:04.776Z,1036.61
2018-01-28T11:09:04.768Z,1036.53
2018-01-28T11:10:04.760Z,1036.49
2018-01-28T11:11:04.752Z,1036.44
2018-01-28T11:12:04.743Z,1036.5
2018-01-28T11:13:04.733Z,1036.49
2018-01-28T11:14:04.727Z,1036.41
2018-01-28T11:15:04.718Z,1036.41
2018-01-28T11:16:04.710Z,1036.3
2018-01-28T11:17:04.702Z,1036.28
2018-01-28T11:18:04.694Z,1036.39
2018-01-28T11:19:04.683Z,1036.42
2018-01-28T11:20:04.675Z,1036.44
2018-01-28T11:21:04.668Z,1036.45
2018-01-28T11:22:04.660Z,1036.56
2018-01-28T11:23:04.649Z,1036.61
2018-01-28T11:24:04.641Z,1036.68
2018-01-28T11:25:04.634Z,1036.69
2018-01-28T11:26:04.627Z,1036.82
2018-01-28T11:27:04.619Z,1036.81
2018-01-28T11:28:04.609Z,1036.78
2018-01-28T11:29:04.601Z,1036.81
2018-01-28T11:30:04.590Z,1036.91
2018-01-28T11:31:04.583Z,1036.85
2018-01-28T11:32:04.574Z,1037.07
2018-01-28T11:33:04.567Z,1037
2018-01-28T11:34:04.556Z,1037.05
2018-01-28T11:35:04.549Z,1036.97
2018-01-28T11:36:04.540Z,1037.04
2018-01-28T11:37:04.532Z,1037.05
2018-01-28T11:38:04.525Z,1037.08
2018-01-28T11:39:04.515Z,1037.07
2018-01-28T11:40:04.506Z,1037.02
2018-01-28T11:41:04.496Z,1036.9
2018-01-28T11:42:04.489Z,1036.86
2018-01-28T11:43:04.483Z,1036.81
2018-01-28T11:44:04.471Z,1036.77
2018-01-28T11:45:04.462Z,1036.83
2018-01-28T11:46:04.453Z,1036.72
2018-01-28T11:47:04.445Z,1036.82
2018-01-28T11:48:04.436Z,1036.82
2018-01-28T11:49:04.427Z,1036.91
2018-01-28T11:50:04.419Z,1036.93
2018-01-28T11:51:04.412Z,1036.87
2018-01-28T11:52:04.403Z,1036.78
2018-01-28T11:53:04.394Z,1036.88
2018-01-28T11:54:04.390Z,1036.84
2018-01-28T11:55:04.378Z,1036.79
2018-01-28T11:56:04.368Z,1036.87
2018-01-28T11:57:04.359Z,1036.91
2018-01-28T11:58:04.364Z,1036.88
2018-01-28T11:59:04.341Z,1036.88
2018-01-28T12:00:04.335Z,1036.91
2018-01-28T12:01:04.324Z,1036.87
2018-01-28T12:02:04.315Z,1036.91
2018-01-28T12:03:04.310Z,1036.97
2018-01-28T12:04:04.297Z,1037.08
2018-01-28T12:05:04.306Z,1037.14
2018-01-28T12:06:04.280Z,1037.27
2018-01-28T12:07:04.272Z,1037.3
2018-01-28T12:08:04.263Z,1037.33